sensor_id;sensor_type;location;lat;lon;timestamp;P1;durP1;ratioP1;P2;durP2;ratioP2
81821;SDS011;72257;52.384;4.882;2023-08-21T00:02:15;4.57;;;2.10;;
81821;SDS011;72257;52.384;4.882;2023-08-21T00:04:40;5.50;;;3.00;;
81821;SDS011;72257;52.384;4.882;2023-08-21T00:07:05;5.93;;;2.10;;
81821;SDS011;72257;52.384;4.882;2023-08-21T00:09:31;5.93;;;2.40;;
81821;SDS011;72257;52.384;4.882;2023-08-21T00:11:57;6.43;;;2.00;;
81821;SDS011;72257;52.384;4.882;2023-08-21T00:14:22;6.43;;;2.20;;
81821;SDS011;72257;52.384;4.882;2023-08-21T00:16:47;6.83;;;3.10;;
81821;SDS011;72257;52.384;4.882;2023-08-21T00:19:13;8.90;;;2.73;;
81821;SDS011;72257;52.384;4.882;2023-08-21T00:21:38;6.75;;;2.28;;
81821;SDS011;72257;52.384;4.882;2023-08-21T00:24:03;5.40;;;2.10;;
81821;SDS011;72257;52.384;4.882;2023-08-21T00:26:29;3.42;;;2.00;;
81821;SDS011;72257;52.384;4.882;2023-08-21T00:28:54;3.60;;;2.17;;
81821;SDS011;72257;52.384;4.882;2023-08-21T00:31:19;6.10;;;1.90;;
81821;SDS011;72257;52.384;4.882;2023-08-21T00:33:45;7.07;;;2.70;;
81821;SDS011;72257;52.384;4.882;2023-08-21T00:36:10;3.40;;;2.07;;
81821;SDS011;72257;52.384;4.882;2023-08-21T00:38:35;5.40;;;2.17;;
81821;SDS011;72257;52.384;4.882;2023-08-21T00:41:01;4.80;;;2.10;;
81821;SDS011;72257;52.384;4.882;2023-08-21T00:43:26;4.40;;;1.80;;
81821;SDS011;72257;52.384;4.882;2023-08-21T00:45:51;5.30;;;2.03;;
81821;SDS011;72257;52.384;4.882;2023-08-21T00:48:17;5.10;;;2.08;;
81821;SDS011;72257;52.384;4.882;2023-08-21T00:50:43;5.55;;;2.38;;
81821;SDS011;72257;52.384;4.882;2023-08-21T00:53:10;5.95;;;2.00;;
81821;SDS011;72257;52.384;4.882;2023-08-21T00:55:35;3.88;;;2.53;;
81821;SDS011;72257;52.384;4.882;2023-08-21T00:58:02;4.82;;;1.85;;
81821;SDS011;72257;52.384;4.882;2023-08-21T01:00:30;5.00;;;1.98;;
81821;SDS011;72257;52.384;4.882;2023-08-21T01:02:55;6.83;;;2.07;;
81821;SDS011;72257;52.384;4.882;2023-08-21T01:05:22;8.20;;;2.17;;
81821;SDS011;72257;52.384;4.882;2023-08-21T01:07:57;5.45;;;2.00;;
81821;SDS011;72257;52.384;4.882;2023-08-21T01:10:43;5.90;;;1.80;;
81821;SDS011;72257;52.384;4.882;2023-08-21T01:16:12;4.60;;;1.73;;
81821;SDS011;72257;52.384;4.882;2023-08-21T01:18:39;4.55;;;1.75;;
81821;SDS011;72257;52.384;4.882;2023-08-21T01:21:06;4.60;;;1.80;;
81821;SDS011;72257;52.384;4.882;2023-08-21T01:23:32;2.88;;;1.80;;
81821;SDS011;72257;52.384;4.882;2023-08-21T01:26:01;7.45;;;2.08;;
81821;SDS011;72257;52.384;4.882;2023-08-21T01:28:26;3.95;;;1.60;;
81821;SDS011;72257;52.384;4.882;2023-08-21T01:30:56;6.00;;;1.90;;
81821;SDS011;72257;52.384;4.882;2023-08-21T01:33:26;4.63;;;1.90;;
81821;SDS011;72257;52.384;4.882;2023-08-21T01:35:54;4.80;;;1.80;;
81821;SDS011;72257;52.384;4.882;2023-08-21T01:38:20;5.22;;;1.70;;
81821;SDS011;72257;52.384;4.882;2023-08-21T01:40:46;5.20;;;1.90;;
81821;SDS011;72257;52.384;4.882;2023-08-21T01:43:12;4.32;;;1.70;;
81821;SDS011;72257;52.384;4.882;2023-08-21T01:45:37;4.57;;;1.80;;
81821;SDS011;72257;52.384;4.882;2023-08-21T01:48:02;5.93;;;2.07;;
81821;SDS011;72257;52.384;4.882;2023-08-21T01:50:28;2.80;;;2.03;;
81821;SDS011;72257;52.384;4.882;2023-08-21T01:52:53;5.18;;;2.17;;
81821;SDS011;72257;52.384;4.882;2023-08-21T01:55:19;6.30;;;1.73;;
81821;SDS011;72257;52.384;4.882;2023-08-21T01:57:44;5.50;;;2.00;;
81821;SDS011;72257;52.384;4.882;2023-08-21T02:00:10;7.33;;;1.80;;
81821;SDS011;72257;52.384;4.882;2023-08-21T02:02:36;5.95;;;2.25;;
81821;SDS011;72257;52.384;4.882;2023-08-21T02:05:01;6.15;;;1.77;;
81821;SDS011;72257;52.384;4.882;2023-08-21T02:07:27;6.25;;;2.10;;
81821;SDS011;72257;52.384;4.882;2023-08-21T02:09:53;5.20;;;1.90;;
81821;SDS011;72257;52.384;4.882;2023-08-21T02:12:18;4.43;;;2.10;;
81821;SDS011;72257;52.384;4.882;2023-08-21T02:14:43;5.47;;;1.93;;
81821;SDS011;72257;52.384;4.882;2023-08-21T02:17:09;3.27;;;1.70;;
81821;SDS011;72257;52.384;4.882;2023-08-21T02:19:34;5.07;;;2.07;;
81821;SDS011;72257;52.384;4.882;2023-08-21T02:21:59;3.83;;;1.80;;
81821;SDS011;72257;52.384;4.882;2023-08-21T02:24:24;5.53;;;2.10;;
81821;SDS011;72257;52.384;4.882;2023-08-21T02:26:50;5.67;;;2.07;;
81821;SDS011;72257;52.384;4.882;2023-08-21T02:29:15;5.27;;;1.83;;
81821;SDS011;72257;52.384;4.882;2023-08-21T02:31:40;3.87;;;2.00;;
81821;SDS011;72257;52.384;4.882;2023-08-21T02:34:06;6.40;;;2.27;;
81821;SDS011;72257;52.384;4.882;2023-08-21T02:36:31;5.30;;;2.37;;
81821;SDS011;72257;52.384;4.882;2023-08-21T02:38:56;5.13;;;2.47;;
81821;SDS011;72257;52.384;4.882;2023-08-21T02:41:21;6.63;;;2.03;;
81821;SDS011;72257;52.384;4.882;2023-08-21T02:43:47;7.17;;;2.13;;
81821;SDS011;72257;52.384;4.882;2023-08-21T02:46:12;5.40;;;1.90;;
81821;SDS011;72257;52.384;4.882;2023-08-21T02:48:37;5.03;;;1.98;;
81821;SDS011;72257;52.384;4.882;2023-08-21T02:51:03;7.70;;;2.47;;
81821;SDS011;72257;52.384;4.882;2023-08-21T02:53:28;6.00;;;2.97;;
81821;SDS011;72257;52.384;4.882;2023-08-21T02:55:54;5.38;;;2.08;;
81821;SDS011;72257;52.384;4.882;2023-08-21T02:58:20;3.87;;;2.13;;
81821;SDS011;72257;52.384;4.882;2023-08-21T03:00:45;6.40;;;2.03;;
81821;SDS011;72257;52.384;4.882;2023-08-21T03:03:10;5.03;;;2.37;;
81821;SDS011;72257;52.384;4.882;2023-08-21T03:05:36;5.20;;;2.20;;
81821;SDS011;72257;52.384;4.882;2023-08-21T03:08:01;6.13;;;2.10;;
81821;SDS011;72257;52.384;4.882;2023-08-21T03:10:27;4.55;;;2.05;;
81821;SDS011;72257;52.384;4.882;2023-08-21T03:12:54;5.10;;;2.10;;
81821;SDS011;72257;52.384;4.882;2023-08-21T03:15:19;5.20;;;2.33;;
81821;SDS011;72257;52.384;4.882;2023-08-21T03:17:45;8.63;;;2.40;;
81821;SDS011;72257;52.384;4.882;2023-08-21T03:20:10;6.10;;;2.70;;
81821;SDS011;72257;52.384;4.882;2023-08-21T03:22:36;7.22;;;3.22;;
81821;SDS011;72257;52.384;4.882;2023-08-21T03:25:01;6.20;;;2.30;;
81821;SDS011;72257;52.384;4.882;2023-08-21T03:27:26;4.35;;;2.00;;
81821;SDS011;72257;52.384;4.882;2023-08-21T03:29:52;3.77;;;1.87;;
81821;SDS011;72257;52.384;4.882;2023-08-21T03:32:17;7.00;;;2.00;;
81821;SDS011;72257;52.384;4.882;2023-08-21T03:34:43;5.13;;;2.10;;
81821;SDS011;72257;52.384;4.882;2023-08-21T03:37:09;6.22;;;2.80;;
81821;SDS011;72257;52.384;4.882;2023-08-21T03:39:35;6.28;;;1.92;;
81821;SDS011;72257;52.384;4.882;2023-08-21T03:42:00;4.30;;;1.90;;
81821;SDS011;72257;52.384;4.882;2023-08-21T03:44:26;6.87;;;2.60;;
81821;SDS011;72257;52.384;4.882;2023-08-21T03:46:51;10.80;;;2.83;;
81821;SDS011;72257;52.384;4.882;2023-08-21T03:49:16;5.17;;;2.00;;
81821;SDS011;72257;52.384;4.882;2023-08-21T03:51:41;6.90;;;2.20;;
81821;SDS011;72257;52.384;4.882;2023-08-21T03:54:07;4.50;;;2.30;;
81821;SDS011;72257;52.384;4.882;2023-08-21T03:56:32;6.60;;;2.40;;
81821;SDS011;72257;52.384;4.882;2023-08-21T03:58:57;7.07;;;2.60;;
81821;SDS011;72257;52.384;4.882;2023-08-21T04:01:22;4.73;;;2.00;;
81821;SDS011;72257;52.384;4.882;2023-08-21T04:03:48;5.23;;;2.37;;
81821;SDS011;72257;52.384;4.882;2023-08-21T04:06:13;4.87;;;1.93;;
81821;SDS011;72257;52.384;4.882;2023-08-21T04:08:39;6.43;;;2.35;;
81821;SDS011;72257;52.384;4.882;2023-08-21T04:11:05;5.43;;;2.30;;
81821;SDS011;72257;52.384;4.882;2023-08-21T04:13:31;6.78;;;2.22;;
81821;SDS011;72257;52.384;4.882;2023-08-21T04:15:56;4.87;;;2.10;;
81821;SDS011;72257;52.384;4.882;2023-08-21T04:18:21;5.60;;;2.10;;
81821;SDS011;72257;52.384;4.882;2023-08-21T04:20:47;4.20;;;2.03;;
81821;SDS011;72257;52.384;4.882;2023-08-21T04:23:13;7.85;;;3.47;;
81821;SDS011;72257;52.384;4.882;2023-08-21T04:25:38;6.33;;;2.43;;
81821;SDS011;72257;52.384;4.882;2023-08-21T04:28:03;5.73;;;2.53;;
81821;SDS011;72257;52.384;4.882;2023-08-21T04:30:29;7.95;;;2.50;;
81821;SDS011;72257;52.384;4.882;2023-08-21T04:32:54;6.55;;;2.60;;
81821;SDS011;72257;52.384;4.882;2023-08-21T04:35:20;5.60;;;2.40;;
81821;SDS011;72257;52.384;4.882;2023-08-21T04:37:48;9.23;;;3.50;;
81821;SDS011;72257;52.384;4.882;2023-08-21T04:40:14;5.28;;;2.58;;
81821;SDS011;72257;52.384;4.882;2023-08-21T04:42:39;5.75;;;2.30;;
81821;SDS011;72257;52.384;4.882;2023-08-21T04:45:04;10.00;;;2.80;;
81821;SDS011;72257;52.384;4.882;2023-08-21T04:47:31;8.43;;;3.90;;
81821;SDS011;72257;52.384;4.882;2023-08-21T04:49:56;5.55;;;2.47;;
81821;SDS011;72257;52.384;4.882;2023-08-21T04:52:22;5.68;;;2.75;;
81821;SDS011;72257;52.384;4.882;2023-08-21T04:54:48;5.55;;;2.42;;
81821;SDS011;72257;52.384;4.882;2023-08-21T04:57:14;4.95;;;2.45;;
81821;SDS011;72257;52.384;4.882;2023-08-21T04:59:40;5.72;;;2.30;;
81821;SDS011;72257;52.384;4.882;2023-08-21T05:02:06;6.78;;;2.40;;
81821;SDS011;72257;52.384;4.882;2023-08-21T05:04:33;9.68;;;2.33;;
81821;SDS011;72257;52.384;4.882;2023-08-21T05:07:00;6.03;;;2.40;;
81821;SDS011;72257;52.384;4.882;2023-08-21T05:09:26;6.15;;;2.80;;
81821;SDS011;72257;52.384;4.882;2023-08-21T05:11:51;7.47;;;2.53;;
81821;SDS011;72257;52.384;4.882;2023-08-21T05:14:16;6.00;;;2.37;;
81821;SDS011;72257;52.384;4.882;2023-08-21T05:16:44;6.10;;;2.33;;
81821;SDS011;72257;52.384;4.882;2023-08-21T05:19:10;6.60;;;2.53;;
81821;SDS011;72257;52.384;4.882;2023-08-21T05:21:35;7.03;;;2.30;;
81821;SDS011;72257;52.384;4.882;2023-08-21T05:24:00;7.27;;;2.10;;
81821;SDS011;72257;52.384;4.882;2023-08-21T05:26:26;6.50;;;2.23;;
81821;SDS011;72257;52.384;4.882;2023-08-21T05:28:51;8.60;;;2.40;;
81821;SDS011;72257;52.384;4.882;2023-08-21T05:31:16;6.07;;;2.20;;
81821;SDS011;72257;52.384;4.882;2023-08-21T05:33:41;8.17;;;2.43;;
81821;SDS011;72257;52.384;4.882;2023-08-21T05:36:07;6.57;;;2.50;;
81821;SDS011;72257;52.384;4.882;2023-08-21T05:38:32;5.57;;;2.30;;
81821;SDS011;72257;52.384;4.882;2023-08-21T05:40:57;6.57;;;2.40;;
81821;SDS011;72257;52.384;4.882;2023-08-21T05:43:23;5.63;;;2.70;;
81821;SDS011;72257;52.384;4.882;2023-08-21T05:45:48;5.72;;;2.20;;
81821;SDS011;72257;52.384;4.882;2023-08-21T05:48:14;7.30;;;3.03;;
81821;SDS011;72257;52.384;4.882;2023-08-21T05:50:39;6.60;;;2.70;;
81821;SDS011;72257;52.384;4.882;2023-08-21T05:53:04;7.30;;;2.37;;
81821;SDS011;72257;52.384;4.882;2023-08-21T05:55:30;5.53;;;2.10;;
81821;SDS011;72257;52.384;4.882;2023-08-21T05:57:56;5.60;;;2.10;;
81821;SDS011;72257;52.384;4.882;2023-08-21T06:00:21;7.37;;;2.20;;
81821;SDS011;72257;52.384;4.882;2023-08-21T06:02:46;3.75;;;1.90;;
81821;SDS011;72257;52.384;4.882;2023-08-21T06:05:12;6.37;;;2.73;;
81821;SDS011;72257;52.384;4.882;2023-08-21T06:07:37;6.90;;;2.00;;
81821;SDS011;72257;52.384;4.882;2023-08-21T06:10:03;3.42;;;1.92;;
81821;SDS011;72257;52.384;4.882;2023-08-21T06:12:29;7.65;;;2.10;;
81821;SDS011;72257;52.384;4.882;2023-08-21T06:14:55;5.45;;;2.47;;
81821;SDS011;72257;52.384;4.882;2023-08-21T06:17:20;6.07;;;2.57;;
81821;SDS011;72257;52.384;4.882;2023-08-21T06:19:45;4.73;;;2.20;;
81821;SDS011;72257;52.384;4.882;2023-08-21T06:22:11;6.63;;;3.10;;
81821;SDS011;72257;52.384;4.882;2023-08-21T06:24:36;8.03;;;2.40;;
81821;SDS011;72257;52.384;4.882;2023-08-21T06:27:01;8.13;;;2.30;;
81821;SDS011;72257;52.384;4.882;2023-08-21T06:29:27;7.47;;;2.60;;
81821;SDS011;72257;52.384;4.882;2023-08-21T06:31:52;5.57;;;2.35;;
81821;SDS011;72257;52.384;4.882;2023-08-21T06:34:18;4.43;;;2.00;;
81821;SDS011;72257;52.384;4.882;2023-08-21T06:36:43;8.23;;;2.63;;
81821;SDS011;72257;52.384;4.882;2023-08-21T06:39:08;4.87;;;2.47;;
81821;SDS011;72257;52.384;4.882;2023-08-21T06:41:34;7.40;;;2.60;;
81821;SDS011;72257;52.384;4.882;2023-08-21T06:43:59;7.40;;;3.03;;
81821;SDS011;72257;52.384;4.882;2023-08-21T06:46:25;7.13;;;2.57;;
81821;SDS011;72257;52.384;4.882;2023-08-21T06:48:50;6.53;;;2.60;;
81821;SDS011;72257;52.384;4.882;2023-08-21T06:51:16;7.10;;;2.63;;
81821;SDS011;72257;52.384;4.882;2023-08-21T06:53:41;9.85;;;3.42;;
81821;SDS011;72257;52.384;4.882;2023-08-21T06:56:06;5.87;;;2.70;;
81821;SDS011;72257;52.384;4.882;2023-08-21T06:58:32;7.32;;;2.95;;
81821;SDS011;72257;52.384;4.882;2023-08-21T07:00:57;7.13;;;3.25;;
81821;SDS011;72257;52.384;4.882;2023-08-21T07:03:23;6.10;;;2.50;;
81821;SDS011;72257;52.384;4.882;2023-08-21T07:05:55;8.20;;;3.22;;
81821;SDS011;72257;52.384;4.882;2023-08-21T07:08:21;5.53;;;2.38;;
81821;SDS011;72257;52.384;4.882;2023-08-21T07:10:47;6.75;;;2.70;;
81821;SDS011;72257;52.384;4.882;2023-08-21T07:13:13;8.25;;;3.10;;
81821;SDS011;72257;52.384;4.882;2023-08-21T07:15:38;7.50;;;3.17;;
81821;SDS011;72257;52.384;4.882;2023-08-21T07:18:03;9.13;;;3.17;;
81821;SDS011;72257;52.384;4.882;2023-08-21T07:20:29;6.47;;;2.70;;
81821;SDS011;72257;52.384;4.882;2023-08-21T07:22:54;6.32;;;2.63;;
81821;SDS011;72257;52.384;4.882;2023-08-21T07:25:19;6.43;;;3.30;;
81821;SDS011;72257;52.384;4.882;2023-08-21T07:27:45;6.20;;;3.13;;
81821;SDS011;72257;52.384;4.882;2023-08-21T07:30:10;8.10;;;3.13;;
81821;SDS011;72257;52.384;4.882;2023-08-21T07:32:36;5.95;;;2.58;;
81821;SDS011;72257;52.384;4.882;2023-08-21T07:35:01;6.03;;;2.70;;
81821;SDS011;72257;52.384;4.882;2023-08-21T07:37:26;6.63;;;2.70;;
81821;SDS011;72257;52.384;4.882;2023-08-21T07:39:52;4.50;;;2.80;;
81821;SDS011;72257;52.384;4.882;2023-08-21T07:42:18;9.77;;;3.00;;
81821;SDS011;72257;52.384;4.882;2023-08-21T07:44:44;8.33;;;2.57;;
81821;SDS011;72257;52.384;4.882;2023-08-21T07:47:10;9.18;;;2.90;;
81821;SDS011;72257;52.384;4.882;2023-08-21T07:49:35;8.63;;;3.10;;
81821;SDS011;72257;52.384;4.882;2023-08-21T07:52:02;7.38;;;3.47;;
81821;SDS011;72257;52.384;4.882;2023-08-21T07:54:28;7.13;;;3.05;;
81821;SDS011;72257;52.384;4.882;2023-08-21T07:56:53;9.23;;;3.33;;
81821;SDS011;72257;52.384;4.882;2023-08-21T07:59:18;5.73;;;2.87;;
81821;SDS011;72257;52.384;4.882;2023-08-21T08:01:44;9.18;;;3.47;;
81821;SDS011;72257;52.384;4.882;2023-08-21T08:04:10;9.63;;;3.38;;
81821;SDS011;72257;52.384;4.882;2023-08-21T08:06:36;10.13;;;3.58;;
81821;SDS011;72257;52.384;4.882;2023-08-21T08:09:02;8.55;;;2.90;;
81821;SDS011;72257;52.384;4.882;2023-08-21T08:11:28;6.68;;;3.03;;
81821;SDS011;72257;52.384;4.882;2023-08-21T08:13:54;7.50;;;2.60;;
81821;SDS011;72257;52.384;4.882;2023-08-21T08:16:20;8.50;;;2.80;;
81821;SDS011;72257;52.384;4.882;2023-08-21T08:18:45;8.30;;;2.80;;
81821;SDS011;72257;52.384;4.882;2023-08-21T08:21:11;9.10;;;3.60;;
81821;SDS011;72257;52.384;4.882;2023-08-21T08:23:36;8.40;;;2.77;;
81821;SDS011;72257;52.384;4.882;2023-08-21T08:26:01;6.03;;;2.60;;
81821;SDS011;72257;52.384;4.882;2023-08-21T08:28:27;7.10;;;3.03;;
81821;SDS011;72257;52.384;4.882;2023-08-21T08:30:52;8.07;;;2.75;;
81821;SDS011;72257;52.384;4.882;2023-08-21T08:33:18;8.02;;;3.05;;
81821;SDS011;72257;52.384;4.882;2023-08-21T08:35:43;8.37;;;2.90;;
81821;SDS011;72257;52.384;4.882;2023-08-21T08:38:09;9.83;;;2.93;;
81821;SDS011;72257;52.384;4.882;2023-08-21T08:40:35;9.98;;;3.03;;
81821;SDS011;72257;52.384;4.882;2023-08-21T08:43:07;8.35;;;3.78;;
81821;SDS011;72257;52.384;4.882;2023-08-21T08:45:33;8.23;;;2.83;;
81821;SDS011;72257;52.384;4.882;2023-08-21T08:47:59;8.95;;;2.95;;
81821;SDS011;72257;52.384;4.882;2023-08-21T08:50:28;10.00;;;2.90;;
81821;SDS011;72257;52.384;4.882;2023-08-21T08:52:55;9.80;;;2.63;;
81821;SDS011;72257;52.384;4.882;2023-08-21T08:55:22;7.75;;;2.65;;
81821;SDS011;72257;52.384;4.882;2023-08-21T08:57:47;6.88;;;2.47;;
81821;SDS011;72257;52.384;4.882;2023-08-21T09:00:13;6.60;;;2.43;;
81821;SDS011;72257;52.384;4.882;2023-08-21T09:02:38;5.60;;;2.45;;
81821;SDS011;72257;52.384;4.882;2023-08-21T09:05:04;8.68;;;3.00;;
81821;SDS011;72257;52.384;4.882;2023-08-21T09:07:29;7.28;;;2.58;;
81821;SDS011;72257;52.384;4.882;2023-08-21T09:09:55;5.93;;;2.83;;
81821;SDS011;72257;52.384;4.882;2023-08-21T09:12:20;8.32;;;2.83;;
81821;SDS011;72257;52.384;4.882;2023-08-21T09:14:46;7.25;;;3.55;;
81821;SDS011;72257;52.384;4.882;2023-08-21T09:17:12;8.73;;;2.53;;
81821;SDS011;72257;52.384;4.882;2023-08-21T09:19:38;8.02;;;2.58;;
81821;SDS011;72257;52.384;4.882;2023-08-21T09:22:10;7.15;;;2.40;;
81821;SDS011;72257;52.384;4.882;2023-08-21T09:24:38;9.43;;;2.25;;
81821;SDS011;72257;52.384;4.882;2023-08-21T09:27:04;6.10;;;2.30;;
81821;SDS011;72257;52.384;4.882;2023-08-21T09:29:39;5.65;;;2.22;;
81821;SDS011;72257;52.384;4.882;2023-08-21T09:32:07;6.80;;;2.60;;
81821;SDS011;72257;52.384;4.882;2023-08-21T09:34:33;10.02;;;2.83;;
81821;SDS011;72257;52.384;4.882;2023-08-21T09:37:05;6.70;;;2.13;;
81821;SDS011;72257;52.384;4.882;2023-08-21T09:39:33;5.75;;;2.38;;
81821;SDS011;72257;52.384;4.882;2023-08-21T09:41:59;9.30;;;3.00;;
81821;SDS011;72257;52.384;4.882;2023-08-21T09:44:26;5.63;;;2.25;;
81821;SDS011;72257;52.384;4.882;2023-08-21T09:46:52;7.82;;;2.63;;
81821;SDS011;72257;52.384;4.882;2023-08-21T09:49:17;6.70;;;2.33;;
81821;SDS011;72257;52.384;4.882;2023-08-21T09:51:45;5.70;;;2.72;;
81821;SDS011;72257;52.384;4.882;2023-08-21T09:54:11;5.23;;;1.90;;
81821;SDS011;72257;52.384;4.882;2023-08-21T09:56:37;5.63;;;1.90;;
81821;SDS011;72257;52.384;4.882;2023-08-21T09:59:03;8.40;;;2.65;;
81821;SDS011;72257;52.384;4.882;2023-08-21T10:01:28;4.65;;;1.90;;
81821;SDS011;72257;52.384;4.882;2023-08-21T10:03:57;4.40;;;2.10;;
81821;SDS011;72257;52.384;4.882;2023-08-21T10:06:27;6.65;;;2.30;;
81821;SDS011;72257;52.384;4.882;2023-08-21T10:08:53;6.78;;;2.40;;
81821;SDS011;72257;52.384;4.882;2023-08-21T10:11:20;5.07;;;1.95;;
81821;SDS011;72257;52.384;4.882;2023-08-21T10:13:46;4.95;;;2.25;;
81821;SDS011;72257;52.384;4.882;2023-08-21T10:16:12;4.75;;;2.05;;
81821;SDS011;72257;52.384;4.882;2023-08-21T10:18:42;4.57;;;2.00;;
81821;SDS011;72257;52.384;4.882;2023-08-21T10:21:17;3.95;;;1.88;;
81821;SDS011;72257;52.384;4.882;2023-08-21T10:26:13;6.97;;;3.63;;
81821;SDS011;72257;52.384;4.882;2023-08-21T10:28:51;6.50;;;1.90;;
81821;SDS011;72257;52.384;4.882;2023-08-21T10:32:01;5.43;;;1.73;;
81821;SDS011;72257;52.384;4.882;2023-08-21T10:34:12;4.25;;;2.42;;
81821;SDS011;72257;52.384;4.882;2023-08-21T10:39:19;3.53;;;1.52;;
81821;SDS011;72257;52.384;4.882;2023-08-21T10:41:52;4.50;;;1.80;;
81821;SDS011;72257;52.384;4.882;2023-08-21T10:44:34;6.97;;;2.03;;
81821;SDS011;72257;52.384;4.882;2023-08-21T10:47:18;4.82;;;1.63;;
81821;SDS011;72257;52.384;4.882;2023-08-21T10:49:44;4.10;;;2.22;;
81821;SDS011;72257;52.384;4.882;2023-08-21T10:52:11;3.95;;;1.88;;
81821;SDS011;72257;52.384;4.882;2023-08-21T10:54:43;5.63;;;1.98;;
81821;SDS011;72257;52.384;4.882;2023-08-21T10:57:10;4.60;;;1.80;;
81821;SDS011;72257;52.384;4.882;2023-08-21T10:59:35;4.27;;;1.83;;
81821;SDS011;72257;52.384;4.882;2023-08-21T11:02:00;4.20;;;1.50;;
81821;SDS011;72257;52.384;4.882;2023-08-21T11:04:26;5.17;;;1.60;;
81821;SDS011;72257;52.384;4.882;2023-08-21T11:06:51;3.23;;;1.57;;
81821;SDS011;72257;52.384;4.882;2023-08-21T11:09:17;2.83;;;1.50;;
81821;SDS011;72257;52.384;4.882;2023-08-21T11:11:43;3.88;;;1.60;;
81821;SDS011;72257;52.384;4.882;2023-08-21T11:14:08;4.72;;;1.70;;
81821;SDS011;72257;52.384;4.882;2023-08-21T11:16:34;5.57;;;1.73;;
81821;SDS011;72257;52.384;4.882;2023-08-21T11:19:03;3.63;;;1.60;;
81821;SDS011;72257;52.384;4.882;2023-08-21T11:21:29;3.85;;;1.65;;
81821;SDS011;72257;52.384;4.882;2023-08-21T11:23:55;5.03;;;2.30;;
81821;SDS011;72257;52.384;4.882;2023-08-21T11:26:20;2.93;;;1.63;;
81821;SDS011;72257;52.384;4.882;2023-08-21T11:28:46;3.33;;;1.50;;
81821;SDS011;72257;52.384;4.882;2023-08-21T11:31:11;3.55;;;1.70;;
81821;SDS011;72257;52.384;4.882;2023-08-21T11:33:37;6.80;;;2.05;;
81821;SDS011;72257;52.384;4.882;2023-08-21T11:36:04;5.53;;;1.70;;
81821;SDS011;72257;52.384;4.882;2023-08-21T11:38:29;4.60;;;1.90;;
81821;SDS011;72257;52.384;4.882;2023-08-21T11:40:56;4.57;;;1.77;;
81821;SDS011;72257;52.384;4.882;2023-08-21T11:43:39;1.75;;;1.17;;
81821;SDS011;72257;52.384;4.882;2023-08-21T11:46:10;6.03;;;1.60;;
81821;SDS011;72257;52.384;4.882;2023-08-21T11:48:39;4.40;;;1.60;;
81821;SDS011;72257;52.384;4.882;2023-08-21T11:51:06;3.85;;;1.50;;
81821;SDS011;72257;52.384;4.882;2023-08-21T11:53:39;4.63;;;1.83;;
81821;SDS011;72257;52.384;4.882;2023-08-21T11:56:09;3.63;;;1.50;;
81821;SDS011;72257;52.384;4.882;2023-08-21T11:58:42;2.80;;;1.40;;
81821;SDS011;72257;52.384;4.882;2023-08-21T12:01:10;4.30;;;1.70;;
81821;SDS011;72257;52.384;4.882;2023-08-21T12:03:36;3.72;;;1.85;;
81821;SDS011;72257;52.384;4.882;2023-08-21T12:06:09;3.28;;;1.42;;
81821;SDS011;72257;52.384;4.882;2023-08-21T12:08:36;3.03;;;1.67;;
81821;SDS011;72257;52.384;4.882;2023-08-21T12:11:02;4.47;;;1.73;;
81821;SDS011;72257;52.384;4.882;2023-08-21T12:13:29;3.35;;;1.52;;
81821;SDS011;72257;52.384;4.882;2023-08-21T12:15:55;4.93;;;1.65;;
81821;SDS011;72257;52.384;4.882;2023-08-21T12:18:20;2.63;;;1.50;;
81821;SDS011;72257;52.384;4.882;2023-08-21T12:20:46;2.90;;;1.35;;
81821;SDS011;72257;52.384;4.882;2023-08-21T12:23:11;2.67;;;1.43;;
81821;SDS011;72257;52.384;4.882;2023-08-21T12:25:36;3.20;;;1.60;;
81821;SDS011;72257;52.384;4.882;2023-08-21T12:28:02;2.50;;;1.42;;
81821;SDS011;72257;52.384;4.882;2023-08-21T12:30:27;3.55;;;1.60;;
81821;SDS011;72257;52.384;4.882;2023-08-21T12:32:52;4.50;;;1.83;;
81821;SDS011;72257;52.384;4.882;2023-08-21T12:35:18;3.87;;;1.47;;
81821;SDS011;72257;52.384;4.882;2023-08-21T12:37:43;4.00;;;1.53;;
81821;SDS011;72257;52.384;4.882;2023-08-21T12:40:08;4.40;;;1.60;;
81821;SDS011;72257;52.384;4.882;2023-08-21T12:42:34;4.47;;;1.60;;
81821;SDS011;72257;52.384;4.882;2023-08-21T12:44:59;3.65;;;1.70;;
81821;SDS011;72257;52.384;4.882;2023-08-21T12:47:25;3.97;;;1.65;;
81821;SDS011;72257;52.384;4.882;2023-08-21T12:49:50;2.80;;;1.70;;
81821;SDS011;72257;52.384;4.882;2023-08-21T12:52:15;5.10;;;1.60;;
81821;SDS011;72257;52.384;4.882;2023-08-21T12:54:41;3.70;;;1.57;;
81821;SDS011;72257;52.384;4.882;2023-08-21T12:57:06;3.22;;;1.35;;
81821;SDS011;72257;52.384;4.882;2023-08-21T12:59:32;4.88;;;2.15;;
81821;SDS011;72257;52.384;4.882;2023-08-21T13:02:00;3.55;;;1.60;;
81821;SDS011;72257;52.384;4.882;2023-08-21T13:04:26;2.70;;;1.30;;
81821;SDS011;72257;52.384;4.882;2023-08-21T13:06:51;2.97;;;1.60;;
81821;SDS011;72257;52.384;4.882;2023-08-21T13:09:17;3.43;;;1.40;;
81821;SDS011;72257;52.384;4.882;2023-08-21T13:11:42;3.83;;;1.60;;
81821;SDS011;72257;52.384;4.882;2023-08-21T13:14:07;3.10;;;1.63;;
81821;SDS011;72257;52.384;4.882;2023-08-21T13:16:33;4.13;;;1.53;;
81821;SDS011;72257;52.384;4.882;2023-08-21T13:18:58;2.47;;;1.50;;
81821;SDS011;72257;52.384;4.882;2023-08-21T13:21:23;6.13;;;2.07;;
81821;SDS011;72257;52.384;4.882;2023-08-21T13:23:48;2.97;;;1.60;;
81821;SDS011;72257;52.384;4.882;2023-08-21T13:26:14;3.27;;;1.83;;
81821;SDS011;72257;52.384;4.882;2023-08-21T13:28:40;4.45;;;1.60;;
81821;SDS011;72257;52.384;4.882;2023-08-21T13:31:05;4.17;;;1.70;;
81821;SDS011;72257;52.384;4.882;2023-08-21T13:33:47;4.93;;;1.77;;
81821;SDS011;72257;52.384;4.882;2023-08-21T13:36:14;5.38;;;1.70;;
81821;SDS011;72257;52.384;4.882;2023-08-21T13:38:40;3.78;;;1.45;;
81821;SDS011;72257;52.384;4.882;2023-08-21T13:41:06;4.23;;;1.60;;
81821;SDS011;72257;52.384;4.882;2023-08-21T13:43:33;4.55;;;1.80;;
81821;SDS011;72257;52.384;4.882;2023-08-21T13:45:59;4.50;;;1.73;;
81821;SDS011;72257;52.384;4.882;2023-08-21T13:48:25;4.25;;;1.80;;
81821;SDS011;72257;52.384;4.882;2023-08-21T13:50:51;4.68;;;1.70;;
81821;SDS011;72257;52.384;4.882;2023-08-21T13:53:16;5.53;;;1.80;;
81821;SDS011;72257;52.384;4.882;2023-08-21T13:55:41;3.13;;;1.70;;
81821;SDS011;72257;52.384;4.882;2023-08-21T13:58:07;4.07;;;2.00;;
81821;SDS011;72257;52.384;4.882;2023-08-21T14:00:32;3.53;;;1.52;;
81821;SDS011;72257;52.384;4.882;2023-08-21T14:02:58;2.80;;;1.63;;
81821;SDS011;72257;52.384;4.882;2023-08-21T14:05:23;4.20;;;1.70;;
81821;SDS011;72257;52.384;4.882;2023-08-21T14:07:48;3.00;;;1.60;;
81821;SDS011;72257;52.384;4.882;2023-08-21T14:10:14;3.40;;;1.70;;
81821;SDS011;72257;52.384;4.882;2023-08-21T14:12:39;2.73;;;1.77;;
81821;SDS011;72257;52.384;4.882;2023-08-21T14:15:05;3.45;;;1.70;;
81821;SDS011;72257;52.384;4.882;2023-08-21T14:17:31;3.13;;;1.60;;
81821;SDS011;72257;52.384;4.882;2023-08-21T14:19:56;5.03;;;1.90;;
81821;SDS011;72257;52.384;4.882;2023-08-21T14:22:22;5.63;;;2.10;;
81821;SDS011;72257;52.384;4.882;2023-08-21T14:24:47;5.40;;;1.73;;
81821;SDS011;72257;52.384;4.882;2023-08-21T14:27:13;3.20;;;1.37;;
81821;SDS011;72257;52.384;4.882;2023-08-21T14:29:38;3.13;;;1.50;;
81821;SDS011;72257;52.384;4.882;2023-08-21T14:32:03;2.83;;;1.83;;
81821;SDS011;72257;52.384;4.882;2023-08-21T14:34:29;3.03;;;2.00;;
81821;SDS011;72257;52.384;4.882;2023-08-21T14:36:54;5.25;;;1.50;;
81821;SDS011;72257;52.384;4.882;2023-08-21T14:39:21;5.35;;;1.67;;
81821;SDS011;72257;52.384;4.882;2023-08-21T14:41:47;3.85;;;1.70;;
81821;SDS011;72257;52.384;4.882;2023-08-21T14:44:18;3.15;;;1.80;;
81821;SDS011;72257;52.384;4.882;2023-08-21T14:46:44;4.47;;;1.75;;
81821;SDS011;72257;52.384;4.882;2023-08-21T14:49:09;2.83;;;1.80;;
81821;SDS011;72257;52.384;4.882;2023-08-21T14:51:34;4.47;;;1.60;;